sensor_id;sensor_type;location;lat;lon;timestamp;temperature;humidity
4643;DHT22;2334;48.710;9.622;2022-09-25T00:00:34;12.40;99.90
4643;DHT22;2334;48.710;9.622;2022-09-25T00:03:03;12.40;99.90
4643;DHT22;2334;48.710;9.622;2022-09-25T00:05:29;12.40;99.90
4643;DHT22;2334;48.710;9.622;2022-09-25T00:07:56;12.30;99.90
4643;DHT22;2334;48.710;9.622;2022-09-25T00:10:23;12.20;99.90
4643;DHT22;2334;48.710;9.622;2022-09-25T00:12:50;12.20;99.90
4643;DHT22;2334;48.710;9.622;2022-09-25T00:15:17;12.20;99.90
4643;DHT22;2334;48.710;9.622;2022-09-25T00:17:44;12.20;99.90
4643;DHT22;2334;48.710;9.622;2022-09-25T00:20:15;12.10;99.90
4643;DHT22;2334;48.710;9.622;2022-09-25T00:22:41;12.10;99.90
4643;DHT22;2334;48.710;9.622;2022-09-25T00:25:10;11.90;99.90
4643;DHT22;2334;48.710;9.622;2022-09-25T00:27:37;11.90;99.90
4643;DHT22;2334;48.710;9.622;2022-09-25T00:30:05;11.80;99.90
4643;DHT22;2334;48.710;9.622;2022-09-25T00:32:33;11.80;99.90
4643;DHT22;2334;48.710;9.622;2022-09-25T00:34:59;11.80;99.90
4643;DHT22;2334;48.710;9.622;2022-09-25T00:37:28;11.70;99.90
4643;DHT22;2334;48.710;9.622;2022-09-25T00:39:55;11.70;99.90
4643;DHT22;2334;48.710;9.622;2022-09-25T00:42:22;11.70;99.90
4643;DHT22;2334;48.710;9.622;2022-09-25T00:44:57;11.70;99.90
4643;DHT22;2334;48.710;9.622;2022-09-25T00:47:48;11.60;99.90
4643;DHT22;2334;48.710;9.622;2022-09-25T00:50:31;11.60;99.90
4643;DHT22;2334;48.710;9.622;2022-09-25T00:53:04;11.50;99.90
4643;DHT22;2334;48.710;9.622;2022-09-25T00:55:33;11.50;99.90
4643;DHT22;2334;48.710;9.622;2022-09-25T00:58:02;11.50;99.90
4643;DHT22;2334;48.710;9.622;2022-09-25T01:00:30;11.50;99.90
4643;DHT22;2334;48.710;9.622;2022-09-25T01:02:57;11.50;99.90
4643;DHT22;2334;48.710;9.622;2022-09-25T01:05:27;11.50;99.90
4643;DHT22;2334;48.710;9.622;2022-09-25T01:07:56;11.50;99.90
4643;DHT22;2334;48.710;9.622;2022-09-25T01:10:27;11.50;99.90
4643;DHT22;2334;48.710;9.622;2022-09-25T01:12:55;11.50;99.90
4643;DHT22;2334;48.710;9.622;2022-09-25T01:15:29;11.50;99.90
4643;DHT22;2334;48.710;9.622;2022-09-25T01:18:02;11.50;99.90
4643;DHT22;2334;48.710;9.622;2022-09-25T01:20:49;11.50;99.90
4643;DHT22;2334;48.710;9.622;2022-09-25T01:23:35;11.60;99.90
4643;DHT22;2334;48.710;9.622;2022-09-25T01:26:21;11.70;99.90
4643;DHT22;2334;48.710;9.622;2022-09-25T01:29:08;11.70;99.90
4643;DHT22;2334;48.710;9.622;2022-09-25T01:31:40;11.70;99.90
4643;DHT22;2334;48.710;9.622;2022-09-25T01:34:14;11.80;99.90
4643;DHT22;2334;48.710;9.622;2022-09-25T01:36:47;11.80;99.90
4643;DHT22;2334;48.710;9.622;2022-09-25T01:39:20;11.80;99.90
4643;DHT22;2334;48.710;9.622;2022-09-25T01:41:51;11.70;99.90
4643;DHT22;2334;48.710;9.622;2022-09-25T01:44:26;11.80;99.90
4643;DHT22;2334;48.710;9.622;2022-09-25T01:47:01;11.80;99.90
4643;DHT22;2334;48.710;9.622;2022-09-25T01:49:32;11.80;99.90
4643;DHT22;2334;48.710;9.622;2022-09-25T01:52:06;11.80;99.90
4643;DHT22;2334;48.710;9.622;2022-09-25T01:54:36;11.90;99.90
4643;DHT22;2334;48.710;9.622;2022-09-25T01:57:08;11.80;99.90
4643;DHT22;2334;48.710;9.622;2022-09-25T01:59:40;11.80;99.90
4643;DHT22;2334;48.710;9.622;2022-09-25T02:02:11;11.80;99.90
4643;DHT22;2334;48.710;9.622;2022-09-25T02:04:41;11.80;99.90
4643;DHT22;2334;48.710;9.622;2022-09-25T02:07:14;11.80;99.90
4643;DHT22;2334;48.710;9.622;2022-09-25T02:09:44;11.80;99.90
4643;DHT22;2334;48.710;9.622;2022-09-25T02:12:14;11.90;99.90
4643;DHT22;2334;48.710;9.622;2022-09-25T02:14:45;11.80;99.90
4643;DHT22;2334;48.710;9.622;2022-09-25T02:17:17;11.80;99.90
4643;DHT22;2334;48.710;9.622;2022-09-25T02:20:01;11.80;99.90
4643;DHT22;2334;48.710;9.622;2022-09-25T02:22:47;11.80;99.90
4643;DHT22;2334;48.710;9.622;2022-09-25T02:25:19;11.90;99.90
4643;DHT22;2334;48.710;9.622;2022-09-25T02:27:48;11.90;99.90
4643;DHT22;2334;48.710;9.622;2022-09-25T02:30:17;11.90;99.90
4643;DHT22;2334;48.710;9.622;2022-09-25T02:32:44;11.90;99.90
4643;DHT22;2334;48.710;9.622;2022-09-25T02:35:11;11.90;99.90
4643;DHT22;2334;48.710;9.622;2022-09-25T02:37:38;11.90;99.90
4643;DHT22;2334;48.710;9.622;2022-09-25T02:40:05;11.90;99.90
4643;DHT22;2334;48.710;9.622;2022-09-25T02:42:39;11.90;99.90
4643;DHT22;2334;48.710;9.622;2022-09-25T02:48:07;11.90;99.90
4643;DHT22;2334;48.710;9.622;2022-09-25T02:50:44;11.80;99.90
4643;DHT22;2334;48.710;9.622;2022-09-25T02:53:16;11.80;99.90
4643;DHT22;2334;48.710;9.622;2022-09-25T02:55:47;11.80;99.90
4643;DHT22;2334;48.710;9.622;2022-09-25T02:58:18;11.80;99.90
4643;DHT22;2334;48.710;9.622;2022-09-25T03:00:49;11.80;99.90
4643;DHT22;2334;48.710;9.622;2022-09-25T03:03:20;11.80;99.90
4643;DHT22;2334;48.710;9.622;2022-09-25T03:05:49;11.80;99.90
4643;DHT22;2334;48.710;9.622;2022-09-25T03:08:17;11.80;99.90
4643;DHT22;2334;48.710;9.622;2022-09-25T03:11:04;11.80;99.90
4643;DHT22;2334;48.710;9.622;2022-09-25T03:13:31;11.80;99.90
4643;DHT22;2334;48.710;9.622;2022-09-25T03:16:01;11.90;99.90
4643;DHT22;2334;48.710;9.622;2022-09-25T03:18:30;11.80;99.90
4643;DHT22;2334;48.710;9.622;2022-09-25T03:20:57;11.90;99.90
4643;DHT22;2334;48.710;9.622;2022-09-25T03:23:24;11.80;99.90
4643;DHT22;2334;48.710;9.622;2022-09-25T03:25:52;11.80;99.90
4643;DHT22;2334;48.710;9.622;2022-09-25T03:28:21;11.90;99.90
4643;DHT22;2334;48.710;9.622;2022-09-25T03:30:58;11.90;99.90
4643;DHT22;2334;48.710;9.622;2022-09-25T03:33:26;11.90;99.90
4643;DHT22;2334;48.710;9.622;2022-09-25T03:36:07;11.90;99.90
4643;DHT22;2334;48.710;9.622;2022-09-25T03:38:36;11.90;99.90
4643;DHT22;2334;48.710;9.622;2022-09-25T03:41:04;11.90;99.90
4643;DHT22;2334;48.710;9.622;2022-09-25T03:43:33;11.90;99.90
4643;DHT22;2334;48.710;9.622;2022-09-25T03:46:02;11.90;99.90
4643;DHT22;2334;48.710;9.622;2022-09-25T03:48:29;11.90;99.90
4643;DHT22;2334;48.710;9.622;2022-09-25T03:50:56;11.80;99.90
4643;DHT22;2334;48.710;9.622;2022-09-25T03:53:24;11.80;99.90
4643;DHT22;2334;48.710;9.622;2022-09-25T03:55:52;11.80;99.90
4643;DHT22;2334;48.710;9.622;2022-09-25T03:58:19;11.80;99.90
4643;DHT22;2334;48.710;9.622;2022-09-25T04:00:47;11.80;99.90
4643;DHT22;2334;48.710;9.622;2022-09-25T04:03:14;11.80;99.90
4643;DHT22;2334;48.710;9.622;2022-09-25T04:05:42;11.80;99.90
4643;DHT22;2334;48.710;9.622;2022-09-25T04:08:10;11.80;99.90
4643;DHT22;2334;48.710;9.622;2022-09-25T04:10:38;11.90;99.90
4643;DHT22;2334;48.710;9.622;2022-09-25T04:13:06;11.90;99.90
4643;DHT22;2334;48.710;9.622;2022-09-25T04:15:33;11.90;99.90
4643;DHT22;2334;48.710;9.622;2022-09-25T04:18:00;11.90;99.90
4643;DHT22;2334;48.710;9.622;2022-09-25T04:20:27;11.80;99.90
4643;DHT22;2334;48.710;9.622;2022-09-25T04:22:54;11.80;99.90
4643;DHT22;2334;48.710;9.622;2022-09-25T04:25:21;11.80;99.90
4643;DHT22;2334;48.710;9.622;2022-09-25T04:27:52;11.80;99.90
4643;DHT22;2334;48.710;9.622;2022-09-25T04:30:20;11.80;99.90
4643;DHT22;2334;48.710;9.622;2022-09-25T04:32:47;11.80;99.90
4643;DHT22;2334;48.710;9.622;2022-09-25T04:35:32;11.80;99.90
4643;DHT22;2334;48.710;9.622;2022-09-25T04:37:58;11.80;99.90
4643;DHT22;2334;48.710;9.622;2022-09-25T04:40:26;11.80;99.90
4643;DHT22;2334;48.710;9.622;2022-09-25T04:43:02;11.80;99.90
4643;DHT22;2334;48.710;9.622;2022-09-25T04:45:31;11.80;99.90
4643;DHT22;2334;48.710;9.622;2022-09-25T04:47:59;11.80;99.90
4643;DHT22;2334;48.710;9.622;2022-09-25T04:50:27;11.80;99.90
4643;DHT22;2334;48.710;9.622;2022-09-25T04:52:56;11.80;99.90
4643;DHT22;2334;48.710;9.622;2022-09-25T04:55:23;11.80;99.90
4643;DHT22;2334;48.710;9.622;2022-09-25T04:57:50;11.80;99.90
4643;DHT22;2334;48.710;9.622;2022-09-25T05:00:19;11.80;99.90
4643;DHT22;2334;48.710;9.622;2022-09-25T05:02:46;11.80;99.90
4643;DHT22;2334;48.710;9.622;2022-09-25T05:05:14;11.80;99.90
4643;DHT22;2334;48.710;9.622;2022-09-25T05:07:50;11.80;99.90
4643;DHT22;2334;48.710;9.622;2022-09-25T05:10:18;11.80;99.90
4643;DHT22;2334;48.710;9.622;2022-09-25T05:12:46;11.80;99.90
4643;DHT22;2334;48.710;9.622;2022-09-25T05:15:13;11.70;99.90
4643;DHT22;2334;48.710;9.622;2022-09-25T05:17:41;11.60;99.90
4643;DHT22;2334;48.710;9.622;2022-09-25T05:20:08;11.70;99.90
4643;DHT22;2334;48.710;9.622;2022-09-25T05:22:35;11.60;99.90
4643;DHT22;2334;48.710;9.622;2022-09-25T05:25:03;11.70;99.90
4643;DHT22;2334;48.710;9.622;2022-09-25T05:27:32;11.70;99.90
4643;DHT22;2334;48.710;9.622;2022-09-25T05:29:59;11.70;99.90
4643;DHT22;2334;48.710;9.622;2022-09-25T05:32:26;11.70;99.90
4643;DHT22;2334;48.710;9.622;2022-09-25T05:34:56;11.80;99.90
4643;DHT22;2334;48.710;9.622;2022-09-25T05:37:23;11.80;99.90
4643;DHT22;2334;48.710;9.622;2022-09-25T05:39:50;11.80;99.90
4643;DHT22;2334;48.710;9.622;2022-09-25T05:42:17;11.80;99.90
4643;DHT22;2334;48.710;9.622;2022-09-25T05:44:44;11.70;99.90
4643;DHT22;2334;48.710;9.622;2022-09-25T05:47:11;11.80;99.90
4643;DHT22;2334;48.710;9.622;2022-09-25T05:49:38;11.80;99.90
4643;DHT22;2334;48.710;9.622;2022-09-25T05:52:06;11.80;99.90
4643;DHT22;2334;48.710;9.622;2022-09-25T05:54:33;11.80;99.90
4643;DHT22;2334;48.710;9.622;2022-09-25T05:57:00;11.80;99.90
4643;DHT22;2334;48.710;9.622;2022-09-25T05:59:27;11.80;99.90
4643;DHT22;2334;48.710;9.622;2022-09-25T06:01:54;11.80;99.90
4643;DHT22;2334;48.710;9.622;2022-09-25T06:04:21;11.70;99.90
4643;DHT22;2334;48.710;9.622;2022-09-25T06:06:48;11.70;99.90
4643;DHT22;2334;48.710;9.622;2022-09-25T06:09:16;11.70;99.90
4643;DHT22;2334;48.710;9.622;2022-09-25T06:11:43;11.70;99.90
4643;DHT22;2334;48.710;9.622;2022-09-25T06:14:12;11.70;99.90
4643;DHT22;2334;48.710;9.622;2022-09-25T06:16:39;11.70;99.90
4643;DHT22;2334;48.710;9.622;2022-09-25T06:19:06;11.70;99.90
4643;DHT22;2334;48.710;9.622;2022-09-25T06:21:33;11.70;99.90
4643;DHT22;2334;48.710;9.622;2022-09-25T06:24:00;11.70;99.90
4643;DHT22;2334;48.710;9.622;2022-09-25T06:26:28;11.70;99.90
4643;DHT22;2334;48.710;9.622;2022-09-25T06:28:56;11.80;99.90
4643;DHT22;2334;48.710;9.622;2022-09-25T06:31:25;11.80;99.90
4643;DHT22;2334;48.710;9.622;2022-09-25T06:33:52;11.70;99.90
4643;DHT22;2334;48.710;9.622;2022-09-25T06:36:19;11.70;99.90
4643;DHT22;2334;48.710;9.622;2022-09-25T06:38:47;11.60;99.90
4643;DHT22;2334;48.710;9.622;2022-09-25T06:41:14;11.70;99.90
4643;DHT22;2334;48.710;9.622;2022-09-25T06:43:42;11.70;99.90
4643;DHT22;2334;48.710;9.622;2022-09-25T06:46:09;11.60;99.90
4643;DHT22;2334;48.710;9.622;2022-09-25T06:48:36;11.70;99.90
4643;DHT22;2334;48.710;9.622;2022-09-25T06:51:04;11.80;99.90
4643;DHT22;2334;48.710;9.622;2022-09-25T06:53:33;11.90;99.90
4643;DHT22;2334;48.710;9.622;2022-09-25T06:56:00;11.80;99.90
4643;DHT22;2334;48.710;9.622;2022-09-25T06:58:28;11.90;99.90
4643;DHT22;2334;48.710;9.622;2022-09-25T07:00:57;12.00;99.90
4643;DHT22;2334;48.710;9.622;2022-09-25T07:03:24;12.10;99.90
4643;DHT22;2334;48.710;9.622;2022-09-25T07:06:10;12.20;99.90
4643;DHT22;2334;48.710;9.622;2022-09-25T07:08:38;12.30;99.90
4643;DHT22;2334;48.710;9.622;2022-09-25T07:11:05;12.30;99.90
4643;DHT22;2334;48.710;9.622;2022-09-25T07:13:34;12.30;99.90
4643;DHT22;2334;48.710;9.622;2022-09-25T07:16:04;12.30;99.90
4643;DHT22;2334;48.710;9.622;2022-09-25T07:18:31;12.40;99.90
4643;DHT22;2334;48.710;9.622;2022-09-25T07:20:59;12.50;99.90
4643;DHT22;2334;48.710;9.622;2022-09-25T07:23:27;12.40;99.90
4643;DHT22;2334;48.710;9.622;2022-09-25T07:25:55;12.50;99.90
4643;DHT22;2334;48.710;9.622;2022-09-25T07:28:23;12.60;99.90
4643;DHT22;2334;48.710;9.622;2022-09-25T07:30:50;12.60;99.90
4643;DHT22;2334;48.710;9.622;2022-09-25T07:33:18;12.60;99.90
4643;DHT22;2334;48.710;9.622;2022-09-25T07:35:49;12.60;99.90
4643;DHT22;2334;48.710;9.622;2022-09-25T07:38:17;12.70;99.90
4643;DHT22;2334;48.710;9.622;2022-09-25T07:40:44;12.80;99.90
4643;DHT22;2334;48.710;9.622;2022-09-25T07:43:10;12.80;99.90
4643;DHT22;2334;48.710;9.622;2022-09-25T07:45:37;12.80;99.90
4643;DHT22;2334;48.710;9.622;2022-09-25T07:48:04;12.90;99.90
4643;DHT22;2334;48.710;9.622;2022-09-25T07:50:33;12.90;99.90
4643;DHT22;2334;48.710;9.622;2022-09-25T07:53:00;12.90;99.90
4643;DHT22;2334;48.710;9.622;2022-09-25T07:55:26;12.90;99.90
4643;DHT22;2334;48.710;9.622;2022-09-25T07:57:55;12.90;99.90
4643;DHT22;2334;48.710;9.622;2022-09-25T08:00:22;12.90;99.90
4643;DHT22;2334;48.710;9.622;2022-09-25T08:02:54;13.00;99.90
4643;DHT22;2334;48.710;9.622;2022-09-25T08:05:22;13.00;99.90
4643;DHT22;2334;48.710;9.622;2022-09-25T08:07:51;13.10;99.90
4643;DHT22;2334;48.710;9.622;2022-09-25T08:10:18;13.10;99.90
4643;DHT22;2334;48.710;9.622;2022-09-25T08:12:45;13.20;99.90
4643;DHT22;2334;48.710;9.622;2022-09-25T08:15:12;13.20;99.90
4643;DHT22;2334;48.710;9.622;2022-09-25T08:17:39;13.20;99.90
4643;DHT22;2334;48.710;9.622;2022-09-25T08:20:07;13.30;99.90
4643;DHT22;2334;48.710;9.622;2022-09-25T08:22:34;13.40;99.90
4643;DHT22;2334;48.710;9.622;2022-09-25T08:25:02;13.40;99.90
4643;DHT22;2334;48.710;9.622;2022-09-25T08:27:30;13.40;99.90
4643;DHT22;2334;48.710;9.622;2022-09-25T08:29:57;13.40;99.90
4643;DHT22;2334;48.710;9.622;2022-09-25T08:32:24;13.50;99.90
4643;DHT22;2334;48.710;9.622;2022-09-25T08:34:51;13.50;99.90
4643;DHT22;2334;48.710;9.622;2022-09-25T08:37:18;13.60;99.90
4643;DHT22;2334;48.710;9.622;2022-09-25T08:39:45;13.60;99.90
4643;DHT22;2334;48.710;9.622;2022-09-25T08:42:19;13.60;99.90
4643;DHT22;2334;48.710;9.622;2022-09-25T08:44:50;13.60;99.90
4643;DHT22;2334;48.710;9.622;2022-09-25T08:47:39;13.70;99.90
4643;DHT22;2334;48.710;9.622;2022-09-25T08:50:24;13.80;99.90
4643;DHT22;2334;48.710;9.622;2022-09-25T08:52:59;13.70;99.90
4643;DHT22;2334;48.710;9.622;2022-09-25T08:55:29;13.70;99.90
4643;DHT22;2334;48.710;9.622;2022-09-25T08:58:14;13.70;99.90
4643;DHT22;2334;48.710;9.622;2022-09-25T09:00:44;13.80;99.90
4643;DHT22;2334;48.710;9.622;2022-09-25T09:03:11;13.90;99.90
4643;DHT22;2334;48.710;9.622;2022-09-25T09:05:40;13.80;99.90
4643;DHT22;2334;48.710;9.622;2022-09-25T09:08:12;13.90;99.90
4643;DHT22;2334;48.710;9.622;2022-09-25T09:10:44;14.00;99.90
4643;DHT22;2334;48.710;9.622;2022-09-25T09:13:20;14.00;99.90
4643;DHT22;2334;48.710;9.622;2022-09-25T09:15:51;14.00;99.90
4643;DHT22;2334;48.710;9.622;2022-09-25T09:18:24;13.90;99.90
4643;DHT22;2334;48.710;9.622;2022-09-25T09:20:53;14.00;99.90
4643;DHT22;2334;48.710;9.622;2022-09-25T09:23:22;14.10;99.90
4643;DHT22;2334;48.710;9.622;2022-09-25T09:26:00;14.20;99.90
4643;DHT22;2334;48.710;9.622;2022-09-25T09:29:02;14.30;99.90
4643;DHT22;2334;48.710;9.622;2022-09-25T09:31:39;14.30;99.90
4643;DHT22;2334;48.710;9.622;2022-09-25T09:34:26;14.50;99.90
4643;DHT22;2334;48.710;9.622;2022-09-25T09:36:59;14.60;99.90
4643;DHT22;2334;48.710;9.622;2022-09-25T09:39:33;14.60;99.90
4643;DHT22;2334;48.710;9.622;2022-09-25T09:42:09;14.50;99.90
4643;DHT22;2334;48.710;9.622;2022-09-25T09:44:50;14.40;99.90
4643;DHT22;2334;48.710;9.622;2022-09-25T09:47:32;14.40;99.90
4643;DHT22;2334;48.710;9.622;2022-09-25T09:50:17;14.50;99.90
4643;DHT22;2334;48.710;9.622;2022-09-25T09:52:47;14.60;99.90
4643;DHT22;2334;48.710;9.622;2022-09-25T09:55:20;14.60;99.90
4643;DHT22;2334;48.710;9.622;2022-09-25T09:57:51;14.60;99.90
4643;DHT22;2334;48.710;9.622;2022-09-25T10:00:21;14.50;99.90
4643;DHT22;2334;48.710;9.622;2022-09-25T10:02:51;14.70;99.90
4643;DHT22;2334;48.710;9.622;2022-09-25T10:05:22;15.00;99.90
4643;DHT22;2334;48.710;9.622;2022-09-25T10:07:51;15.20;99.90
4643;DHT22;2334;48.710;9.622;2022-09-25T10:10:18;15.30;99.90
4643;DHT22;2334;48.710;9.622;2022-09-25T10:12:49;15.40;99.90
4643;DHT22;2334;48.710;9.622;2022-09-25T10:15:25;15.60;99.90
4643;DHT22;2334;48.710;9.622;2022-09-25T10:17:54;16.10;99.90
4643;DHT22;2334;48.710;9.622;2022-09-25T10:20:23;16.40;99.90
4643;DHT22;2334;48.710;9.622;2022-09-25T10:22:53;16.40;99.90
4643;DHT22;2334;48.710;9.622;2022-09-25T10:25:34;16.70;99.90
4643;DHT22;2334;48.710;9.622;2022-09-25T10:28:21;17.00;99.90
4643;DHT22;2334;48.710;9.622;2022-09-25T10:30:50;17.00;99.90
4643;DHT22;2334;48.710;9.622;2022-09-25T10:33:19;16.70;99.90
4643;DHT22;2334;48.710;9.622;2022-09-25T10:35:47;16.30;99.90
4643;DHT22;2334;48.710;9.622;2022-09-25T10:38:21;16.00;99.90
4643;DHT22;2334;48.710;9.622;2022-09-25T10:40:58;15.90;99.90
4643;DHT22;2334;48.710;9.622;2022-09-25T10:43:25;15.80;99.90
4643;DHT22;2334;48.710;9.622;2022-09-25T10:46:09;15.90;99.90
4643;DHT22;2334;48.710;9.622;2022-09-25T10:48:38;15.90;99.90
4643;DHT22;2334;48.710;9.622;2022-09-25T10:51:24;15.90;99.90
4643;DHT22;2334;48.710;9.622;2022-09-25T10:54:08;15.90;99.90
4643;DHT22;2334;48.710;9.622;2022-09-25T10:56:36;16.10;99.90
4643;DHT22;2334;48.710;9.622;2022-09-25T10:59:09;16.20;99.90
4643;DHT22;2334;48.710;9.622;2022-09-25T11:01:41;16.30;99.90
4643;DHT22;2334;48.710;9.622;2022-09-25T11:04:13;16.20;99.90
4643;DHT22;2334;48.710;9.622;2022-09-25T11:06:44;16.30;99.90
4643;DHT22;2334;48.710;9.622;2022-09-25T11:09:13;16.30;99.90
4643;DHT22;2334;48.710;9.622;2022-09-25T11:11:40;16.30;99.90
4643;DHT22;2334;48.710;9.622;2022-09-25T11:14:18;16.20;99.90
4643;DHT22;2334;48.710;9.622;2022-09-25T11:16:50;15.90;99.90
4643;DHT22;2334;48.710;9.622;2022-09-25T11:19:25;15.90;99.90
4643;DHT22;2334;48.710;9.622;2022-09-25T11:22:15;15.80;99.90
4643;DHT22;2334;48.710;9.622;2022-09-25T11:24:58;15.80;99.90
4643;DHT22;2334;48.710;9.622;2022-09-25T11:27:33;15.80;99.90
4643;DHT22;2334;48.710;9.622;2022-09-25T11:30:03;15.80;99.90
4643;DHT22;2334;48.710;9.622;2022-09-25T11:32:37;15.80;99.90
4643;DHT22;2334;48.710;9.622;2022-09-25T11:35:39;15.60;99.90
4643;DHT22;2334;48.710;9.622;2022-09-25T11:38:15;15.70;99.90
4643;DHT22;2334;48.710;9.622;2022-09-25T11:40:51;15.70;99.90
4643;DHT22;2334;48.710;9.622;2022-09-25T11:43:48;15.70;99.90
4643;DHT22;2334;48.710;9.622;2022-09-25T11:46:25;15.70;99.90
4643;DHT22;2334;48.710;9.622;2022-09-25T11:49:02;15.90;99.90
4643;DHT22;2334;48.710;9.622;2022-09-25T11:51:49;16.00;99.90
4643;DHT22;2334;48.710;9.622;2022-09-25T11:54:26;16.10;99.90
4643;DHT22;2334;48.710;9.622;2022-09-25T11:56:58;16.10;99.90
4643;DHT22;2334;48.710;9.622;2022-09-25T11:59:38;16.10;99.90
4643;DHT22;2334;48.710;9.622;2022-09-25T12:02:17;16.00;99.90
4643;DHT22;2334;48.710;9.622;2022-09-25T12:05:02;15.90;99.90
4643;DHT22;2334;48.710;9.622;2022-09-25T12:07:45;15.80;99.90
4643;DHT22;2334;48.710;9.622;2022-09-25T12:10:31;15.70;99.90
4643;DHT22;2334;48.710;9.622;2022-09-25T12:13:06;15.50;99.90
4643;DHT22;2334;48.710;9.622;2022-09-25T12:15:50;15.40;99.90
4643;DHT22;2334;48.710;9.622;2022-09-25T12:18:27;15.20;99.90
4643;DHT22;2334;48.710;9.622;2022-09-25T12:21:02;15.20;99.90
4643;DHT22;2334;48.710;9.622;2022-09-25T12:23:32;15.20;99.90
4643;DHT22;2334;48.710;9.622;2022-09-25T12:26:13;15.10;99.90
4643;DHT22;2334;48.710;9.622;2022-09-25T12:28:54;14.90;99.90
4643;DHT22;2334;48.710;9.622;2022-09-25T12:31:30;14.90;99.90
4643;DHT22;2334;48.710;9.622;2022-09-25T12:34:08;14.80;99.90
4643;DHT22;2334;48.710;9.622;2022-09-25T12:36:40;14.80;99.90
4643;DHT22;2334;48.710;9.622;2022-09-25T12:39:20;14.80;99.90
4643;DHT22;2334;48.710;9.622;2022-09-25T12:41:54;14.70;99.90
4643;DHT22;2334;48.710;9.622;2022-09-25T12:44:27;14.70;99.90
4643;DHT22;2334;48.710;9.622;2022-09-25T12:47:01;14.60;99.90
4643;DHT22;2334;48.710;9.622;2022-09-25T12:49:33;14.60;99.90
4643;DHT22;2334;48.710;9.622;2022-09-25T12:52:10;14.60;99.90
4643;DHT22;2334;48.710;9.622;2022-09-25T12:54:47;14.50;99.90
4643;DHT22;2334;48.710;9.622;2022-09-25T12:57:25;14.40;99.90
4643;DHT22;2334;48.710;9.622;2022-09-25T12:59:55;14.40;99.90
4643;DHT22;2334;48.710;9.622;2022-09-25T13:02:30;14.40;99.90
4643;DHT22;2334;48.710;9.622;2022-09-25T13:05:06;14.40;99.90
4643;DHT22;2334;48.710;9.622;2022-09-25T13:07:41;14.40;99.90
4643;DHT22;2334;48.710;9.622;2022-09-25T13:10:28;14.50;99.90
4643;DHT22;2334;48.710;9.622;2022-09-25T13:12:58;14.60;99.90
4643;DHT22;2334;48.710;9.622;2022-09-25T13:15:29;14.60;99.90
4643;DHT22;2334;48.710;9.622;2022-09-25T13:17:57;14.80;99.90
4643;DHT22;2334;48.710;9.622;2022-09-25T13:20:47;14.80;99.90
4643;DHT22;2334;48.710;9.622;2022-09-25T13:23:30;14.90;99.90
4643;DHT22;2334;48.710;9.622;2022-09-25T13:26:00;15.10;99.90
4643;DHT22;2334;48.710;9.622;2022-09-25T13:28:30;15.20;99.90
4643;DHT22;2334;48.710;9.622;2022-09-25T13:31:08;15.20;99.90
4643;DHT22;2334;48.710;9.622;2022-09-25T13:33:47;15.20;99.90
4643;DHT22;2334;48.710;9.622;2022-09-25T13:36:29;15.30;99.90
4643;DHT22;2334;48.710;9.622;2022-09-25T13:39:00;15.60;99.90
4643;DHT22;2334;48.710;9.622;2022-09-25T13:41:51;15.70;99.90
4643;DHT22;2334;48.710;9.622;2022-09-25T13:44:56;15.70;99.90
4643;DHT22;2334;48.710;9.622;2022-09-25T13:47:55;15.60;99.90
4643;DHT22;2334;48.710;9.622;2022-09-25T13:50:30;15.50;99.90
4643;DHT22;2334;48.710;9.622;2022-09-25T13:53:25;15.40;99.90
4643;DHT22;2334;48.710;9.622;2022-09-25T13:56:16;15.30;99.90
4643;DHT22;2334;48.710;9.622;2022-09-25T14:01:50;15.40;99.90
4643;DHT22;2334;48.710;9.622;2022-09-25T14:04:24;15.30;99.90
4643;DHT22;2334;48.710;9.622;2022-09-25T14:06:55;15.30;99.90
4643;DHT22;2334;48.710;9.622;2022-09-25T14:09:29;15.20;99.90
4643;DHT22;2334;48.710;9.622;2022-09-25T14:12:05;15.00;99.90
4643;DHT22;2334;48.710;9.622;2022-09-25T14:14:39;15.00;99.90
4643;DHT22;2334;48.710;9.622;2022-09-25T14:17:11;15.00;99.90
4643;DHT22;2334;48.710;9.622;2022-09-25T14:19:42;15.10;99.90
4643;DHT22;2334;48.710;9.622;2022-09-25T14:22:18;15.20;99.90
4643;DHT22;2334;48.710;9.622;2022-09-25T14:24:46;15.20;99.90
4643;DHT22;2334;48.710;9.622;2022-09-25T14:27:21;15.10;99.90
4643;DHT22;2334;48.710;9.622;2022-09-25T14:29:50;15.20;99.90
4643;DHT22;2334;48.710;9.622;2022-09-25T14:32:35;15.30;99.90
4643;DHT22;2334;48.710;9.622;2022-09-25T14:35:25;15.40;99.90
4643;DHT22;2334;48.710;9.622;2022-09-25T14:38:14;15.40;99.90
4643;DHT22;2334;48.710;9.622;2022-09-25T14:40:52;15.20;99.90
4643;DHT22;2334;48.710;9.622;2022-09-25T14:43:44;15.20;99.90
4643;DHT22;2334;48.710;9.622;2022-09-25T14:46:15;15.20;99.90
4643;DHT22;2334;48.710;9.622;2022-09-25T14:48:46;15.10;99.90
4643;DHT22;2334;48.710;9.622;2022-09-25T14:51:18;15.00;99.90
4643;DHT22;2334;48.710;9.622;2022-09-25T14:53:51;15.00;99.90
4643;DHT22;2334;48.710;9.622;2022-09-25T14:56:20;15.20;99.90
4643;DHT22;2334;48.710;9.622;2022-09-25T14:58:52;15.20;99.90
4643;DHT22;2334;48.710;9.622;2022-09-25T15:01:25;15.10;99.90
4643;DHT22;2334;48.710;9.622;2022-09-25T15:03:55;15.10;99.90
4643;DHT22;2334;48.710;9.622;2022-09-25T15:06:25;15.20;99.90
4643;DHT22;2334;48.710;9.622;2022-09-25T15:08:53;15.30;99.90
4643;DHT22;2334;48.710;9.622;2022-09-25T15:11:20;15.20;99.90
4643;DHT22;2334;48.710;9.622;2022-09-25T15:13:51;15.30;99.90
4643;DHT22;2334;48.710;9.622;2022-09-25T15:16:21;15.20;99.90
4643;DHT22;2334;48.710;9.622;2022-09-25T15:19:16;15.20;99.90
4643;DHT22;2334;48.710;9.622;2022-09-25T15:21:45;15.30;99.90
4643;DHT22;2334;48.710;9.622;2022-09-25T15:24:16;15.30;99.90
4643;DHT22;2334;48.710;9.622;2022-09-25T15:26:48;15.30;99.90
4643;DHT22;2334;48.710;9.622;2022-09-25T15:29:19;15.30;99.90
4643;DHT22;2334;48.710;9.622;2022-09-25T15:31:48;15.20;99.90
4643;DHT22;2334;48.710;9.622;2022-09-25T15:34:20;15.20;99.90
4643;DHT22;2334;48.710;9.622;2022-09-25T15:36:48;15.10;99.90
4643;DHT22;2334;48.710;9.622;2022-09-25T15:39:20;15.10;99.90
4643;DHT22;2334;48.710;9.622;2022-09-25T15:41:47;15.10;99.90
4643;DHT22;2334;48.710;9.622;2022-09-25T15:44:19;15.10;99.90
4643;DHT22;2334;48.710;9.622;2022-09-25T15:46:49;15.10;99.90
4643;DHT22;2334;48.710;9.622;2022-09-25T15:49:18;15.10;99.90
4643;DHT22;2334;48.710;9.622;2022-09-25T15:51:50;15.10;99.90
4643;DHT22;2334;48.710;9.622;2022-09-25T15:54:30;15.10;99.90
4643;DHT22;2334;48.710;9.622;2022-09-25T15:56:59;15.20;99.90
4643;DHT22;2334;48.710;9.622;2022-09-25T15:59:31;15.30;99.90
4643;DHT22;2334;48.710;9.622;2022-09-25T16:02:08;15.30;99.90
4643;DHT22;2334;48.710;9.622;2022-09-25T16:04:53;15.40;99.90
4643;DHT22;2334;48.710;9.622;2022-09-25T16:07:27;15.40;99.90
4643;DHT22;2334;48.710;9.622;2022-09-25T16:09:56;15.40;99.90
4643;DHT22;2334;48.710;9.622;2022-09-25T16:12:29;15.40;99.90
4643;DHT22;2334;48.710;9.622;2022-09-25T16:14:57;15.30;99.90
4643;DHT22;2334;48.710;9.622;2022-09-25T16:17:30;15.10;99.90
4643;DHT22;2334;48.710;9.622;2022-09-25T16:20:05;15.10;99.90
4643;DHT22;2334;48.710;9.622;2022-09-25T16:22:39;15.00;99.90
4643;DHT22;2334;48.710;9.622;2022-09-25T16:25:14;14.90;99.90
4643;DHT22;2334;48.710;9.622;2022-09-25T16:27:44;14.80;99.90
4643;DHT22;2334;48.710;9.622;2022-09-25T16:30:17;14.80;99.90
4643;DHT22;2334;48.710;9.622;2022-09-25T16:32:46;14.80;99.90
4643;DHT22;2334;48.710;9.622;2022-09-25T16:35:33;14.70;99.90
4643;DHT22;2334;48.710;9.622;2022-09-25T16:38:01;14.70;99.90
4643;DHT22;2334;48.710;9.622;2022-09-25T16:40:29;14.70;99.90